Terminal Aerodrome Forecast
Issued by NWS Caribou, ME

Home | Current Version | Previous Version | Text Only | Print | Product List | Glossary On
Versions: 1 2 3 4 5 6 7 8 9 10 11 12 13 14 15 16 17 18 19 20 21 22 23 24 25 26
000
FTUS41 KCAR 200520
TAFCAR
TAF
KCAR 200520Z 2006/2106 17003KT P6SM OVC090
     FM201100 18005KT P6SM -RA OVC017
     FM202000 12004KT 6SM -RA OVC008
     FM202300 08003KT 5SM -RA OVC006
     FM210500 01004KT 4SM -RA OVC005=

USA.gov is the U.S. government's official web portal to all federal, state and local government web resources and services.